createdAt,value
2022-10-12T00:00:50.089Z,0.30
2022-10-12T00:03:18.106Z,0.30
2022-10-12T00:05:47.679Z,0.28
2022-10-12T00:08:15.529Z,0.20
2022-10-12T00:10:45.737Z,0.30
2022-10-12T00:13:13.621Z,0.40
2022-10-12T00:15:42.541Z,0.30
2022-10-12T00:18:10.413Z,0.20
2022-10-12T00:20:38.545Z,0.30
2022-10-12T00:23:08.097Z,0.30
2022-10-12T00:25:38.385Z,0.45
2022-10-12T00:28:07.358Z,0.32
2022-10-12T00:30:35.722Z,0.30
2022-10-12T00:33:03.580Z,0.30
2022-10-12T00:35:31.455Z,0.30
2022-10-12T00:37:59.391Z,0.38
2022-10-12T00:40:28.645Z,0.30
2022-10-12T00:42:56.662Z,0.40
2022-10-12T00:45:26.447Z,0.32
2022-10-12T00:47:58.189Z,0.28
2022-10-12T00:50:30.825Z,0.30
2022-10-12T00:53:03.299Z,0.25
2022-10-12T00:55:36.900Z,0.30
2022-10-12T00:58:08.233Z,0.20
2022-10-12T01:00:38.721Z,0.40
2022-10-12T01:03:09.113Z,0.20
2022-10-12T01:05:39.253Z,0.20
2022-10-12T01:08:07.380Z,0.40
2022-10-12T01:10:36.597Z,0.30
2022-10-12T01:13:05.040Z,0.35
2022-10-12T01:15:37.261Z,0.25
2022-10-12T01:18:12.121Z,0.20
2022-10-12T01:20:56.622Z,0.45
2022-10-12T01:23:56.812Z,0.55
2022-10-12T01:26:42.447Z,0.20
2022-10-12T01:29:28.421Z,0.20
2022-10-12T01:32:04.316Z,0.30
2022-10-12T01:34:40.200Z,0.20
2022-10-12T01:37:17.232Z,0.30
2022-10-12T01:39:51.269Z,0.35
2022-10-12T01:42:24.580Z,0.30
2022-10-12T01:44:52.556Z,0.30
2022-10-12T01:47:22.126Z,0.30
2022-10-12T01:49:50.004Z,0.15
2022-10-12T01:52:27.903Z,0.38
2022-10-12T01:55:27.937Z,0.20
2022-10-12T01:58:22.884Z,0.45
2022-10-12T02:01:00.746Z,0.30
2022-10-12T02:03:37.689Z,0.40
2022-10-12T02:06:10.160Z,0.20
2022-10-12T02:08:44.901Z,0.40
2022-10-12T02:11:14.780Z,0.30
2022-10-12T02:13:46.476Z,0.25
2022-10-12T02:16:18.245Z,0.35
2022-10-12T02:18:52.430Z,0.20
2022-10-12T02:21:22.321Z,0.40
2022-10-12T02:23:52.656Z,0.25
2022-10-12T02:26:22.219Z,0.20
2022-10-12T02:28:51.109Z,0.20
2022-10-12T02:31:30.063Z,0.20
2022-10-12T02:34:05.661Z,0.38
2022-10-12T02:36:38.858Z,0.30
2022-10-12T02:39:11.797Z,0.22
2022-10-12T02:41:44.731Z,0.30
2022-10-12T02:44:16.197Z,0.20
2022-10-12T02:46:45.668Z,0.20
2022-10-12T02:49:16.336Z,0.20
2022-10-12T02:51:45.612Z,0.30
2022-10-12T02:54:14.288Z,0.30
2022-10-12T02:56:46.242Z,0.40
2022-10-12T02:59:14.767Z,0.28
2022-10-12T03:01:42.899Z,0.10
2022-10-12T03:04:10.965Z,0.30
2022-10-12T03:06:40.232Z,0.30
2022-10-12T03:09:08.080Z,0.20
2022-10-12T03:11:37.658Z,0.20
2022-10-12T03:14:05.763Z,0.30
2022-10-12T03:16:33.642Z,0.40
2022-10-12T03:19:01.505Z,0.30
2022-10-12T03:21:29.394Z,0.17
2022-10-12T03:23:58.608Z,0.35
2022-10-12T03:26:26.523Z,0.30
2022-10-12T03:28:54.565Z,0.52
2022-10-12T03:31:22.531Z,0.32
2022-10-12T03:33:50.394Z,0.60
2022-10-12T03:36:18.840Z,0.30
2022-10-12T03:38:47.148Z,0.30
2022-10-12T03:41:16.448Z,0.20
2022-10-12T03:43:44.407Z,0.30
2022-10-12T03:46:12.322Z,0.30
2022-10-12T03:48:40.236Z,0.40
2022-10-12T03:51:08.233Z,0.20
2022-10-12T03:53:36.192Z,0.22
2022-10-12T03:56:04.432Z,0.25
2022-10-12T03:58:34.415Z,0.30
2022-10-12T04:01:02.307Z,0.20
2022-10-12T04:03:30.224Z,0.35
2022-10-12T04:05:59.366Z,0.35
2022-10-12T04:08:28.521Z,0.25
2022-10-12T04:10:56.406Z,0.45
2022-10-12T04:13:25.585Z,0.52
2022-10-12T04:15:55.528Z,0.40
2022-10-12T04:18:23.416Z,0.30
2022-10-12T04:20:51.486Z,0.32
2022-10-12T04:23:19.364Z,0.80
2022-10-12T04:25:47.888Z,0.73
2022-10-12T04:28:15.793Z,0.45
2022-10-12T04:30:43.806Z,0.50
2022-10-12T04:33:13.226Z,0.30
2022-10-12T04:35:41.339Z,0.50
2022-10-12T04:38:09.227Z,0.70
2022-10-12T04:40:37.116Z,0.40
2022-10-12T04:43:04.994Z,0.45
2022-10-12T04:45:32.860Z,0.50
2022-10-12T04:48:00.726Z,1.13
2022-10-12T04:50:30.360Z,0.43
2022-10-12T04:52:58.569Z,0.57
2022-10-12T04:55:26.853Z,0.98
2022-10-12T04:57:54.749Z,1.48
2022-10-12T05:00:22.793Z,1.42
2022-10-12T05:02:50.797Z,1.00
2022-10-12T05:05:18.797Z,0.75
2022-10-12T05:07:48.041Z,1.25
2022-10-12T05:10:16.033Z,0.65
2022-10-12T05:12:43.965Z,0.90
2022-10-12T05:15:12.508Z,1.10
2022-10-12T05:17:40.590Z,0.82
2022-10-12T05:20:10.487Z,0.60
2022-10-12T05:22:38.550Z,1.05
2022-10-12T05:25:09.457Z,0.70
2022-10-12T05:27:37.687Z,0.70
2022-10-12T05:30:06.697Z,0.80
2022-10-12T05:32:34.564Z,0.98
2022-10-12T05:35:02.495Z,0.70
2022-10-12T05:37:30.389Z,0.70
2022-10-12T05:39:58.261Z,0.68
2022-10-12T05:42:27.500Z,0.60
2022-10-12T05:44:55.405Z,0.75
2022-10-12T05:47:23.340Z,0.63
2022-10-12T05:49:51.237Z,0.80
2022-10-12T05:52:19.124Z,0.80
2022-10-12T05:54:47.033Z,0.77
2022-10-12T05:57:15.493Z,0.52
2022-10-12T05:59:44.812Z,0.95
2022-10-12T06:02:15.515Z,0.90
2022-10-12T06:04:43.776Z,0.75
2022-10-12T06:07:11.678Z,0.85
2022-10-12T06:09:39.905Z,0.60
2022-10-12T06:12:07.975Z,0.60
2022-10-12T06:14:35.940Z,0.60
2022-10-12T06:17:06.779Z,0.95
2022-10-12T06:19:34.654Z,0.63
2022-10-12T06:22:02.806Z,0.70
2022-10-12T06:24:30.680Z,1.00
2022-10-12T06:26:58.996Z,0.98
2022-10-12T06:29:27.129Z,0.80
2022-10-12T06:31:55.495Z,0.80
2022-10-12T06:34:24.781Z,0.77
2022-10-12T06:36:52.939Z,0.88
2022-10-12T06:39:21.792Z,0.60
2022-10-12T06:41:49.692Z,0.90
2022-10-12T06:44:22.443Z,0.70
2022-10-12T06:46:50.688Z,1.05
2022-10-12T06:49:18.965Z,0.93
2022-10-12T06:51:48.263Z,0.82
2022-10-12T06:54:16.261Z,0.80
2022-10-12T06:56:44.826Z,0.70
2022-10-12T06:59:13.851Z,0.85
2022-10-12T07:01:41.885Z,0.60
2022-10-12T07:04:09.941Z,0.60
2022-10-12T07:06:37.842Z,0.80
2022-10-12T07:09:07.101Z,1.63
2022-10-12T07:11:35.062Z,1.20
2022-10-12T07:14:02.973Z,1.20
2022-10-12T07:16:30.905Z,1.10
2022-10-12T07:18:58.783Z,0.93
2022-10-12T07:21:26.734Z,1.00
2022-10-12T07:23:54.719Z,0.80
2022-10-12T07:26:24.139Z,1.02
2022-10-12T07:28:52.058Z,1.08
2022-10-12T07:31:19.985Z,1.02
2022-10-12T07:33:47.894Z,1.05
2022-10-12T07:36:21.135Z,0.70
2022-10-12T07:38:49.824Z,0.50
2022-10-12T07:41:18.522Z,0.75
2022-10-12T07:43:47.797Z,0.73
2022-10-12T07:46:15.698Z,0.75
2022-10-12T07:48:49.780Z,0.50
2022-10-12T07:51:18.724Z,0.70
2022-10-12T07:53:46.723Z,0.60
2022-10-12T07:56:16.126Z,0.75
2022-10-12T07:58:45.022Z,0.90
2022-10-12T08:01:14.430Z,0.60
2022-10-12T08:03:42.625Z,0.80
2022-10-12T08:06:12.402Z,1.25
2022-10-12T08:08:41.168Z,0.68
2022-10-12T08:11:10.028Z,0.75
2022-10-12T08:13:38.766Z,0.98
2022-10-12T08:16:10.723Z,0.60
2022-10-12T08:18:40.617Z,0.57
2022-10-12T08:21:10.053Z,0.70
2022-10-12T08:23:38.689Z,0.70
2022-10-12T08:26:07.765Z,0.70
2022-10-12T08:28:36.999Z,0.70
2022-10-12T08:31:08.346Z,0.75
2022-10-12T08:33:36.465Z,0.70
2022-10-12T08:36:07.868Z,1.00
2022-10-12T08:38:38.605Z,0.50
2022-10-12T08:41:19.355Z,0.60
2022-10-12T08:44:01.813Z,0.60
2022-10-12T08:46:30.864Z,0.40
2022-10-12T08:49:01.749Z,0.50
2022-10-12T08:51:34.299Z,0.68
2022-10-12T08:54:06.686Z,0.40
2022-10-12T08:56:35.908Z,0.60
2022-10-12T08:59:04.469Z,0.70
2022-10-12T09:01:37.435Z,0.80
2022-10-12T09:04:15.241Z,0.70
2022-10-12T09:06:49.478Z,0.50
2022-10-12T09:09:41.601Z,0.60
2022-10-12T09:12:26.856Z,0.75
2022-10-12T09:15:00.470Z,0.40
2022-10-12T09:17:32.180Z,1.17
2022-10-12T09:20:05.303Z,0.55
2022-10-12T09:22:35.465Z,0.93
2022-10-12T09:25:04.254Z,0.63
2022-10-12T09:27:32.959Z,0.75
2022-10-12T09:30:04.800Z,0.47
2022-10-12T09:33:10.622Z,0.98
2022-10-12T09:35:38.977Z,0.50
2022-10-12T09:38:11.386Z,0.50
2022-10-12T09:40:40.201Z,1.00
2022-10-12T09:43:08.867Z,0.52
2022-10-12T09:45:37.149Z,0.40
2022-10-12T09:48:17.157Z,0.50
2022-10-12T09:50:49.653Z,0.60
2022-10-12T09:53:29.743Z,0.70
2022-10-12T09:56:01.530Z,0.40
2022-10-12T09:58:30.727Z,0.73
2022-10-12T10:01:21.540Z,1.15
2022-10-12T10:03:52.683Z,0.90
2022-10-12T10:06:25.802Z,0.80
2022-10-12T10:08:56.594Z,0.85
2022-10-12T10:11:28.297Z,0.70
2022-10-12T10:13:56.492Z,0.85
2022-10-12T10:16:27.073Z,0.80
2022-10-12T10:18:59.924Z,0.43
2022-10-12T10:21:35.060Z,0.60
2022-10-12T10:24:06.534Z,0.90
2022-10-12T10:26:53.397Z,0.52
2022-10-12T10:29:33.946Z,0.63
2022-10-12T10:32:23.821Z,0.63
2022-10-12T10:35:04.119Z,0.98
2022-10-12T10:37:32.912Z,0.50
2022-10-12T10:40:02.860Z,0.80
2022-10-12T10:42:32.847Z,0.80
2022-10-12T10:45:03.549Z,0.40
2022-10-12T10:47:33.581Z,0.65
2022-10-12T10:50:04.092Z,0.60
2022-10-12T10:52:34.949Z,0.80
2022-10-12T10:55:20.906Z,0.60
2022-10-12T10:57:58.005Z,0.90
2022-10-12T11:00:38.579Z,0.90
2022-10-12T11:03:14.184Z,0.57
2022-10-12T11:05:46.519Z,0.93
2022-10-12T11:08:18.445Z,0.82
2022-10-12T11:10:51.545Z,1.40
2022-10-12T11:13:22.912Z,2.10
2022-10-12T11:15:55.616Z,2.97
2022-10-12T11:18:31.265Z,1.90
2022-10-12T11:21:03.590Z,1.92
2022-10-12T11:23:41.573Z,1.70
2022-10-12T11:26:17.883Z,1.20
2022-10-12T11:28:46.065Z,1.27
2022-10-12T11:31:21.465Z,0.90
2022-10-12T11:33:51.333Z,0.95
2022-10-12T11:36:22.745Z,0.90
2022-10-12T11:38:54.210Z,0.90
2022-10-12T11:41:35.365Z,0.80
2022-10-12T11:44:08.550Z,0.77
2022-10-12T11:46:41.098Z,1.33
2022-10-12T11:49:15.338Z,0.55
2022-10-12T11:51:48.293Z,0.70
2022-10-12T11:54:24.892Z,0.50
2022-10-12T11:56:59.580Z,0.52
2022-10-12T11:59:33.569Z,0.47
2022-10-12T12:02:13.905Z,0.50
2022-10-12T12:04:45.376Z,0.75
2022-10-12T12:07:49.560Z,0.57
2022-10-12T12:11:03.170Z,0.82
2022-10-12T12:13:33.236Z,0.75
2022-10-12T12:16:35.181Z,0.70
2022-10-12T12:19:35.986Z,0.60
2022-10-12T12:22:28.686Z,0.82
2022-10-12T12:25:17.907Z,0.43
2022-10-12T12:27:49.350Z,0.60
2022-10-12T12:30:40.652Z,0.70
2022-10-12T12:33:29.759Z,1.23
2022-10-12T12:36:00.853Z,0.90
2022-10-12T12:38:33.019Z,0.80
2022-10-12T12:41:08.132Z,0.60
2022-10-12T12:44:02.300Z,0.63
2022-10-12T12:50:02.242Z,1.10
2022-10-12T12:52:32.941Z,0.90
2022-10-12T12:55:25.648Z,0.50
2022-10-12T12:58:14.609Z,0.60
2022-10-12T13:00:55.060Z,0.80
2022-10-12T13:03:49.092Z,1.33
2022-10-12T13:06:55.947Z,2.08
2022-10-12T13:09:54.604Z,2.20
2022-10-12T13:12:59.912Z,1.95
2022-10-12T13:15:46.403Z,1.67
2022-10-12T13:18:49.135Z,1.08
2022-10-12T13:21:20.460Z,1.58
2022-10-12T13:23:50.310Z,1.17
2022-10-12T13:26:24.926Z,1.45
2022-10-12T13:28:53.889Z,1.38
2022-10-12T13:31:27.185Z,1.38
2022-10-12T13:34:02.191Z,1.23
2022-10-12T13:36:32.154Z,1.20
2022-10-12T13:39:02.021Z,1.20
2022-10-12T13:41:33.474Z,1.75
2022-10-12T13:44:04.867Z,1.27
2022-10-12T13:46:42.422Z,1.45
2022-10-12T13:49:15.308Z,1.67
2022-10-12T13:51:45.012Z,0.93
2022-10-12T13:54:21.753Z,0.90
2022-10-12T13:56:58.389Z,1.88
2022-10-12T13:59:29.591Z,0.50
2022-10-12T14:02:00.648Z,0.75
2022-10-12T14:04:30.100Z,0.57
2022-10-12T14:07:02.428Z,0.75
2022-10-12T14:09:37.279Z,0.50
2022-10-12T14:12:07.048Z,0.63
2022-10-12T14:14:37.442Z,0.50
2022-10-12T14:17:05.845Z,0.52
2022-10-12T14:19:37.107Z,0.52
2022-10-12T14:22:05.288Z,0.50
2022-10-12T14:24:35.440Z,0.50
2022-10-12T14:27:05.549Z,0.60
2022-10-12T14:29:38.018Z,0.73
2022-10-12T14:32:07.771Z,0.65
2022-10-12T14:34:40.392Z,0.50
2022-10-12T14:37:25.080Z,0.80
2022-10-12T14:39:59.587Z,0.90
2022-10-12T14:42:36.410Z,0.40
2022-10-12T14:45:22.417Z,0.40
2022-10-12T14:47:50.398Z,0.63
2022-10-12T14:50:21.703Z,0.60
2022-10-12T14:52:52.796Z,0.80
2022-10-12T14:55:22.585Z,0.75
2022-10-12T14:57:51.426Z,0.40
2022-10-12T15:00:23.325Z,0.60
2022-10-12T15:02:52.495Z,0.82
2022-10-12T15:05:23.437Z,0.70
2022-10-12T15:07:52.225Z,0.98
2022-10-12T15:10:22.608Z,0.60
2022-10-12T15:12:51.301Z,1.00
2022-10-12T15:15:29.842Z,1.05
2022-10-12T15:17:57.947Z,5.57
2022-10-12T15:20:26.045Z,3.03
2022-10-12T15:22:53.971Z,2.17
2022-10-12T15:25:27.003Z,2.15
2022-10-12T15:27:55.006Z,1.20
2022-10-12T15:30:24.237Z,1.20
2022-10-12T15:32:52.300Z,1.15
2022-10-12T15:35:23.324Z,1.05
2022-10-12T15:37:52.180Z,1.17
2022-10-12T15:40:21.725Z,0.90
2022-10-12T15:42:49.810Z,0.85
2022-10-12T15:45:21.248Z,0.70
2022-10-12T15:47:51.664Z,0.82
2022-10-12T15:50:21.564Z,0.70
2022-10-12T15:52:49.633Z,0.60
2022-10-12T15:55:21.132Z,0.70
2022-10-12T15:57:49.945Z,0.68
2022-10-12T16:00:19.449Z,0.70
2022-10-12T16:02:47.362Z,0.70
2022-10-12T16:05:20.516Z,0.65
2022-10-12T16:07:48.948Z,0.80
2022-10-12T16:10:19.208Z,0.75
2022-10-12T16:12:49.651Z,0.80
2022-10-12T16:15:21.418Z,0.82
2022-10-12T16:17:49.732Z,0.73
2022-10-12T16:20:19.725Z,1.20
2022-10-12T16:22:48.853Z,1.40
2022-10-12T16:25:18.285Z,2.53
2022-10-12T16:27:47.022Z,3.45
2022-10-12T16:30:15.799Z,2.90
2022-10-12T16:32:43.712Z,2.20
2022-10-12T16:35:12.735Z,2.05
2022-10-12T16:37:42.150Z,1.50
2022-10-12T16:40:11.965Z,1.38
2022-10-12T16:42:44.758Z,1.20
2022-10-12T16:45:12.966Z,1.30
2022-10-12T16:47:42.769Z,1.05
2022-10-12T16:50:11.228Z,1.27
2022-10-12T16:52:40.160Z,1.10
2022-10-12T16:55:10.925Z,0.80
2022-10-12T16:57:39.576Z,1.02
2022-10-12T17:00:10.589Z,0.80
2022-10-12T17:02:38.820Z,0.93
2022-10-12T17:05:07.854Z,0.98
2022-10-12T17:07:35.865Z,0.90
2022-10-12T17:10:03.889Z,1.00
2022-10-12T17:12:33.309Z,1.05
2022-10-12T17:15:01.216Z,0.93
2022-10-12T17:17:29.176Z,1.27
2022-10-12T17:19:57.065Z,0.95
2022-10-12T17:22:24.971Z,1.00
2022-10-12T17:24:52.974Z,0.93
2022-10-12T17:27:20.836Z,1.33
2022-10-12T17:29:50.257Z,1.20
2022-10-12T17:32:18.643Z,1.10
2022-10-12T17:34:47.397Z,1.05
2022-10-12T17:37:15.694Z,1.15
2022-10-12T17:39:45.719Z,1.17
2022-10-12T17:42:14.043Z,1.20
2022-10-12T17:44:42.195Z,1.00
2022-10-12T17:47:11.509Z,1.10
2022-10-12T17:49:39.388Z,1.02
2022-10-12T17:52:07.617Z,1.05
2022-10-12T17:54:35.500Z,1.30
2022-10-12T17:57:03.392Z,1.50
2022-10-12T17:59:31.381Z,1.27
2022-10-12T18:01:59.260Z,1.40
2022-10-12T18:04:28.628Z,1.13
2022-10-12T18:06:56.533Z,1.15
2022-10-12T18:09:24.502Z,1.30
2022-10-12T18:11:52.399Z,1.30
2022-10-12T18:14:20.307Z,1.10
2022-10-12T18:16:48.183Z,0.93
2022-10-12T18:19:16.130Z,1.30
2022-10-12T18:21:45.628Z,1.42
2022-10-12T18:24:17.444Z,0.90
2022-10-12T18:26:47.424Z,1.00
2022-10-12T18:29:19.014Z,1.67
2022-10-12T18:31:46.970Z,0.93
2022-10-12T18:34:14.886Z,1.48
2022-10-12T18:36:43.153Z,1.20
2022-10-12T18:39:12.748Z,1.50
2022-10-12T18:41:40.724Z,1.60
2022-10-12T18:44:10.853Z,1.60
2022-10-12T18:46:40.989Z,1.80
2022-10-12T18:49:12.944Z,1.73
2022-10-12T18:51:43.837Z,1.60
2022-10-12T18:54:17.110Z,1.67
2022-10-12T18:56:46.124Z,1.60
2022-10-12T18:59:17.777Z,1.75
2022-10-12T19:01:47.692Z,1.60
2022-10-12T19:04:16.983Z,1.90
2022-10-12T19:06:48.374Z,1.75
2022-10-12T19:09:17.952Z,1.73
2022-10-12T19:11:46.201Z,2.30
2022-10-12T19:14:16.649Z,1.90
2022-10-12T19:16:46.642Z,2.13
2022-10-12T19:19:20.832Z,1.80
2022-10-12T19:21:51.746Z,2.55
2022-10-12T19:24:22.651Z,2.30
2022-10-12T19:26:50.865Z,2.50
2022-10-12T19:29:19.272Z,2.53
2022-10-12T19:31:49.472Z,2.10
2022-10-12T19:34:19.623Z,2.30
2022-10-12T19:36:48.830Z,2.03
2022-10-12T19:39:18.785Z,2.40
2022-10-12T19:41:48.588Z,1.70
2022-10-12T19:44:16.650Z,1.67
2022-10-12T19:46:47.320Z,1.77
2022-10-12T19:49:16.922Z,2.00
2022-10-12T19:51:45.418Z,1.90
2022-10-12T19:54:15.013Z,1.60
2022-10-12T19:56:43.570Z,1.80
2022-10-12T19:59:12.897Z,1.48
2022-10-12T20:01:41.208Z,1.70
2022-10-12T20:04:12.049Z,1.70
2022-10-12T20:06:40.248Z,1.40
2022-10-12T20:09:09.912Z,1.48
2022-10-12T20:11:38.441Z,1.52
2022-10-12T20:14:07.192Z,1.50
2022-10-12T20:16:37.940Z,1.40
2022-10-12T20:19:06.944Z,1.83
2022-10-12T20:21:36.436Z,1.38
2022-10-12T20:24:05.114Z,1.20
2022-10-12T20:26:32.984Z,1.30
2022-10-12T20:29:01.713Z,1.65
2022-10-12T20:31:29.659Z,1.30
2022-10-12T20:33:58.943Z,1.42
2022-10-12T20:36:29.548Z,1.10
2022-10-12T20:38:58.489Z,1.48
2022-10-12T20:41:27.721Z,1.30
2022-10-12T20:43:57.266Z,1.25
2022-10-12T20:46:25.753Z,1.20
2022-10-12T20:48:59.362Z,1.65
2022-10-12T20:51:29.906Z,1.50
2022-10-12T20:53:59.383Z,1.50
2022-10-12T20:56:27.541Z,1.50
2022-10-12T20:58:55.596Z,1.30
2022-10-12T21:01:25.536Z,1.70
2022-10-12T21:03:53.623Z,1.77
2022-10-12T21:06:23.557Z,1.33
2022-10-12T21:08:52.734Z,1.30
2022-10-12T21:11:21.062Z,1.00
2022-10-12T21:13:49.361Z,1.48
2022-10-12T21:16:17.417Z,1.60
2022-10-12T21:18:45.400Z,1.60
2022-10-12T21:21:16.137Z,1.20
2022-10-12T21:23:46.757Z,1.50
2022-10-12T21:26:16.352Z,1.60
2022-10-12T21:28:44.444Z,1.52
2022-10-12T21:31:13.733Z,1.63
2022-10-12T21:33:42.053Z,1.95
2022-10-12T21:36:11.863Z,1.60
2022-10-12T21:38:39.865Z,1.20
2022-10-12T21:41:10.704Z,1.33
2022-10-12T21:43:39.553Z,1.40
2022-10-12T21:46:09.577Z,1.50
2022-10-12T21:48:38.250Z,1.20
2022-10-12T21:51:07.490Z,1.30
2022-10-12T21:53:36.436Z,1.40
2022-10-12T21:56:07.243Z,1.42
2022-10-12T21:58:36.553Z,1.05
2022-10-12T22:01:06.140Z,1.10
2022-10-12T22:03:34.173Z,0.85
2022-10-12T22:06:02.290Z,1.02
2022-10-12T22:08:30.293Z,1.25
2022-10-12T22:10:58.221Z,1.40
2022-10-12T22:13:26.100Z,1.23
2022-10-12T22:16:06.650Z,1.58
2022-10-12T22:18:34.704Z,1.42
2022-10-12T22:21:04.243Z,1.35
2022-10-12T22:23:32.443Z,1.20
2022-10-12T22:26:06.847Z,1.63
2022-10-12T22:28:35.663Z,1.13
2022-10-12T22:31:08.681Z,1.20
2022-10-12T22:33:37.414Z,1.10
2022-10-12T22:36:07.031Z,0.90
2022-10-12T22:38:36.417Z,1.50
2022-10-12T22:41:07.520Z,1.15
2022-10-12T22:43:39.513Z,1.10
2022-10-12T22:46:09.104Z,1.05
2022-10-12T22:48:37.957Z,0.80
2022-10-12T22:51:07.410Z,1.02
2022-10-12T22:53:36.151Z,1.10
2022-10-12T22:56:06.494Z,1.02
2022-10-12T22:58:34.782Z,1.33
2022-10-12T23:01:04.441Z,1.02
2022-10-12T23:03:34.909Z,1.20
2022-10-12T23:06:08.212Z,1.40
2022-10-12T23:08:36.430Z,1.23
2022-10-12T23:11:05.802Z,1.10
2022-10-12T23:13:35.477Z,0.85
2022-10-12T23:16:04.123Z,1.27
2022-10-12T23:18:34.343Z,1.30
2022-10-12T23:21:05.527Z,1.50
2022-10-12T23:23:34.819Z,1.40
2022-10-12T23:26:05.125Z,1.13
2022-10-12T23:28:33.122Z,1.25
2022-10-12T23:31:03.120Z,0.98
2022-10-12T23:33:31.042Z,1.02
2022-10-12T23:36:02.254Z,1.00
2022-10-12T23:38:31.281Z,0.80
2022-10-12T23:40:59.807Z,1.10
2022-10-12T23:43:28.172Z,1.10
2022-10-12T23:45:56.089Z,0.88
2022-10-12T23:48:24.195Z,1.33
2022-10-12T23:50:52.813Z,1.13
2022-10-12T23:53:23.902Z,1.10
2022-10-12T23:55:53.015Z,0.90
2022-10-12T23:58:21.346Z,1.00
